sensor_id;sensor_type;location;lat;lon;timestamp;temperature;humidity
10390;DHT22;5241;47.830;12.972;2024-03-07T00:02:10;4.90;99.90
10390;DHT22;5241;47.830;12.972;2024-03-07T00:04:36;5.00;99.90
10390;DHT22;5241;47.830;12.972;2024-03-07T00:07:02;5.00;99.90
10390;DHT22;5241;47.830;12.972;2024-03-07T00:09:31;5.00;99.90
10390;DHT22;5241;47.830;12.972;2024-03-07T00:11:56;5.00;99.90
10390;DHT22;5241;47.830;12.972;2024-03-07T00:14:22;5.00;99.90
10390;DHT22;5241;47.830;12.972;2024-03-07T00:16:55;4.90;99.90
10390;DHT22;5241;47.830;12.972;2024-03-07T00:19:21;4.90;99.90
10390;DHT22;5241;47.830;12.972;2024-03-07T00:21:47;4.90;99.90
10390;DHT22;5241;47.830;12.972;2024-03-07T00:24:13;4.80;99.90
10390;DHT22;5241;47.830;12.972;2024-03-07T00:26:42;4.90;99.90
10390;DHT22;5241;47.830;12.972;2024-03-07T00:29:07;4.90;99.90
10390;DHT22;5241;47.830;12.972;2024-03-07T00:31:33;4.90;99.90
10390;DHT22;5241;47.830;12.972;2024-03-07T00:33:59;4.90;99.90
10390;DHT22;5241;47.830;12.972;2024-03-07T00:36:24;4.90;99.90
10390;DHT22;5241;47.830;12.972;2024-03-07T00:38:51;4.90;99.90
10390;DHT22;5241;47.830;12.972;2024-03-07T00:41:17;4.80;99.90
10390;DHT22;5241;47.830;12.972;2024-03-07T00:43:43;4.80;99.90
10390;DHT22;5241;47.830;12.972;2024-03-07T00:46:08;4.80;99.90
10390;DHT22;5241;47.830;12.972;2024-03-07T00:48:36;4.80;99.90
10390;DHT22;5241;47.830;12.972;2024-03-07T00:51:02;4.80;99.90
10390;DHT22;5241;47.830;12.972;2024-03-07T00:53:29;4.80;99.90
10390;DHT22;5241;47.830;12.972;2024-03-07T00:55:55;4.80;99.90
10390;DHT22;5241;47.830;12.972;2024-03-07T00:58:20;4.80;99.90
10390;DHT22;5241;47.830;12.972;2024-03-07T01:00:46;4.70;99.90
10390;DHT22;5241;47.830;12.972;2024-03-07T01:03:11;4.80;99.90
10390;DHT22;5241;47.830;12.972;2024-03-07T01:05:42;4.80;99.90
10390;DHT22;5241;47.830;12.972;2024-03-07T01:08:07;4.80;99.90
10390;DHT22;5241;47.830;12.972;2024-03-07T01:10:33;4.80;99.90
10390;DHT22;5241;47.830;12.972;2024-03-07T01:12:59;4.70;99.90
10390;DHT22;5241;47.830;12.972;2024-03-07T01:15:28;4.70;99.90
10390;DHT22;5241;47.830;12.972;2024-03-07T01:17:54;4.70;99.90
10390;DHT22;5241;47.830;12.972;2024-03-07T01:20:19;4.70;99.90
10390;DHT22;5241;47.830;12.972;2024-03-07T01:22:45;4.70;99.90
10390;DHT22;5241;47.830;12.972;2024-03-07T01:25:10;4.80;99.90
10390;DHT22;5241;47.830;12.972;2024-03-07T01:27:38;4.70;99.90
10390;DHT22;5241;47.830;12.972;2024-03-07T01:30:04;4.80;99.90
10390;DHT22;5241;47.830;12.972;2024-03-07T01:32:33;4.80;99.90
10390;DHT22;5241;47.830;12.972;2024-03-07T01:34:59;4.70;99.90
10390;DHT22;5241;47.830;12.972;2024-03-07T01:37:24;4.70;99.90
10390;DHT22;5241;47.830;12.972;2024-03-07T01:39:50;4.80;99.90
10390;DHT22;5241;47.830;12.972;2024-03-07T01:42:15;4.80;99.90
10390;DHT22;5241;47.830;12.972;2024-03-07T01:44:41;4.70;99.90
10390;DHT22;5241;47.830;12.972;2024-03-07T01:47:07;4.70;99.90
10390;DHT22;5241;47.830;12.972;2024-03-07T01:49:33;4.70;99.90
10390;DHT22;5241;47.830;12.972;2024-03-07T01:51:58;4.70;99.90
10390;DHT22;5241;47.830;12.972;2024-03-07T01:54:25;4.60;99.90
10390;DHT22;5241;47.830;12.972;2024-03-07T01:56:52;4.50;99.90
10390;DHT22;5241;47.830;12.972;2024-03-07T01:59:18;4.50;99.90
10390;DHT22;5241;47.830;12.972;2024-03-07T02:01:46;4.40;99.90
10390;DHT22;5241;47.830;12.972;2024-03-07T02:04:12;4.40;99.90
10390;DHT22;5241;47.830;12.972;2024-03-07T02:06:38;4.40;99.90
10390;DHT22;5241;47.830;12.972;2024-03-07T02:09:03;4.40;99.90
10390;DHT22;5241;47.830;12.972;2024-03-07T02:11:31;4.40;99.90
10390;DHT22;5241;47.830;12.972;2024-03-07T02:13:56;4.40;99.90
10390;DHT22;5241;47.830;12.972;2024-03-07T02:16:22;4.40;99.90
10390;DHT22;5241;47.830;12.972;2024-03-07T02:18:48;4.40;99.90
10390;DHT22;5241;47.830;12.972;2024-03-07T02:21:14;4.40;99.90
10390;DHT22;5241;47.830;12.972;2024-03-07T02:23:40;4.50;99.90
10390;DHT22;5241;47.830;12.972;2024-03-07T02:26:06;4.50;99.90
10390;DHT22;5241;47.830;12.972;2024-03-07T02:28:33;4.50;99.90
10390;DHT22;5241;47.830;12.972;2024-03-07T02:31:00;4.50;99.90
10390;DHT22;5241;47.830;12.972;2024-03-07T02:33:25;4.40;99.90
10390;DHT22;5241;47.830;12.972;2024-03-07T02:35:51;4.40;99.90
10390;DHT22;5241;47.830;12.972;2024-03-07T02:38:16;4.50;99.90
10390;DHT22;5241;47.830;12.972;2024-03-07T02:40:43;4.50;99.90
10390;DHT22;5241;47.830;12.972;2024-03-07T02:43:08;4.50;99.90
10390;DHT22;5241;47.830;12.972;2024-03-07T02:45:34;4.50;99.90
10390;DHT22;5241;47.830;12.972;2024-03-07T02:47:59;4.50;99.90
10390;DHT22;5241;47.830;12.972;2024-03-07T02:50:25;4.50;99.90
10390;DHT22;5241;47.830;12.972;2024-03-07T02:52:51;4.50;99.90
10390;DHT22;5241;47.830;12.972;2024-03-07T02:55:18;4.50;99.90
10390;DHT22;5241;47.830;12.972;2024-03-07T02:57:44;4.50;99.90
10390;DHT22;5241;47.830;12.972;2024-03-07T03:00:12;4.50;99.90
10390;DHT22;5241;47.830;12.972;2024-03-07T03:02:52;4.50;99.90
10390;DHT22;5241;47.830;12.972;2024-03-07T03:05:17;4.40;99.90
10390;DHT22;5241;47.830;12.972;2024-03-07T03:07:44;4.50;99.90
10390;DHT22;5241;47.830;12.972;2024-03-07T03:10:21;4.50;99.90
10390;DHT22;5241;47.830;12.972;2024-03-07T03:12:52;4.50;99.90
10390;DHT22;5241;47.830;12.972;2024-03-07T03:15:18;4.50;99.90
10390;DHT22;5241;47.830;12.972;2024-03-07T03:17:46;4.50;99.90
10390;DHT22;5241;47.830;12.972;2024-03-07T03:20:12;4.50;99.90
10390;DHT22;5241;47.830;12.972;2024-03-07T03:22:50;4.40;99.90
10390;DHT22;5241;47.830;12.972;2024-03-07T03:25:16;4.40;99.90
10390;DHT22;5241;47.830;12.972;2024-03-07T03:27:41;4.40;99.90
10390;DHT22;5241;47.830;12.972;2024-03-07T03:30:07;4.40;99.90
10390;DHT22;5241;47.830;12.972;2024-03-07T03:32:33;4.50;99.90
10390;DHT22;5241;47.830;12.972;2024-03-07T03:34:58;4.50;99.90
10390;DHT22;5241;47.830;12.972;2024-03-07T03:37:24;4.50;99.90
10390;DHT22;5241;47.830;12.972;2024-03-07T03:39:49;4.40;99.90
10390;DHT22;5241;47.830;12.972;2024-03-07T03:42:16;4.40;99.90
10390;DHT22;5241;47.830;12.972;2024-03-07T03:44:41;4.40;99.90
10390;DHT22;5241;47.830;12.972;2024-03-07T03:47:07;4.50;99.90
10390;DHT22;5241;47.830;12.972;2024-03-07T03:49:32;4.50;99.90
10390;DHT22;5241;47.830;12.972;2024-03-07T03:51:58;4.50;99.90
10390;DHT22;5241;47.830;12.972;2024-03-07T03:54:24;4.60;99.90
10390;DHT22;5241;47.830;12.972;2024-03-07T03:56:49;4.60;99.90
10390;DHT22;5241;47.830;12.972;2024-03-07T03:59:15;4.50;99.90
10390;DHT22;5241;47.830;12.972;2024-03-07T04:01:40;4.60;99.90
10390;DHT22;5241;47.830;12.972;2024-03-07T04:04:06;4.60;99.90
10390;DHT22;5241;47.830;12.972;2024-03-07T04:06:32;4.60;99.90
10390;DHT22;5241;47.830;12.972;2024-03-07T04:08:59;4.60;99.90
10390;DHT22;5241;47.830;12.972;2024-03-07T04:11:24;4.50;99.90
10390;DHT22;5241;47.830;12.972;2024-03-07T04:13:50;4.50;99.90
10390;DHT22;5241;47.830;12.972;2024-03-07T04:16:15;4.50;99.90
10390;DHT22;5241;47.830;12.972;2024-03-07T04:18:42;4.40;99.90
10390;DHT22;5241;47.830;12.972;2024-03-07T04:21:07;4.40;99.90
10390;DHT22;5241;47.830;12.972;2024-03-07T04:23:34;4.50;99.90
10390;DHT22;5241;47.830;12.972;2024-03-07T04:26:00;4.50;99.90
10390;DHT22;5241;47.830;12.972;2024-03-07T04:28:26;4.40;99.90
10390;DHT22;5241;47.830;12.972;2024-03-07T04:30:51;4.40;99.90
10390;DHT22;5241;47.830;12.972;2024-03-07T04:33:18;4.40;99.90
10390;DHT22;5241;47.830;12.972;2024-03-07T04:35:45;4.30;99.90
10390;DHT22;5241;47.830;12.972;2024-03-07T04:38:10;4.40;99.90
10390;DHT22;5241;47.830;12.972;2024-03-07T04:40:37;4.40;99.90
10390;DHT22;5241;47.830;12.972;2024-03-07T04:43:03;4.50;99.90
10390;DHT22;5241;47.830;12.972;2024-03-07T04:45:28;4.50;99.90
10390;DHT22;5241;47.830;12.972;2024-03-07T04:47:54;4.50;99.90
10390;DHT22;5241;47.830;12.972;2024-03-07T04:50:20;4.50;99.90
10390;DHT22;5241;47.830;12.972;2024-03-07T04:52:45;4.50;99.90
10390;DHT22;5241;47.830;12.972;2024-03-07T04:55:11;4.50;99.90
10390;DHT22;5241;47.830;12.972;2024-03-07T04:57:39;4.50;99.90
10390;DHT22;5241;47.830;12.972;2024-03-07T05:00:15;4.50;99.90
10390;DHT22;5241;47.830;12.972;2024-03-07T05:02:41;4.50;99.90
10390;DHT22;5241;47.830;12.972;2024-03-07T05:05:07;4.50;99.90
10390;DHT22;5241;47.830;12.972;2024-03-07T05:07:33;4.50;99.90
10390;DHT22;5241;47.830;12.972;2024-03-07T05:10:02;4.50;99.90
10390;DHT22;5241;47.830;12.972;2024-03-07T05:12:27;4.40;99.90
10390;DHT22;5241;47.830;12.972;2024-03-07T05:14:53;4.40;99.90
10390;DHT22;5241;47.830;12.972;2024-03-07T05:17:19;4.40;99.90
10390;DHT22;5241;47.830;12.972;2024-03-07T05:19:45;4.40;99.90
10390;DHT22;5241;47.830;12.972;2024-03-07T05:22:11;4.50;99.90
10390;DHT22;5241;47.830;12.972;2024-03-07T05:24:41;4.50;99.90
10390;DHT22;5241;47.830;12.972;2024-03-07T05:27:08;4.50;99.90
10390;DHT22;5241;47.830;12.972;2024-03-07T05:29:36;4.40;99.90
10390;DHT22;5241;47.830;12.972;2024-03-07T05:32:20;4.40;99.90
10390;DHT22;5241;47.830;12.972;2024-03-07T05:34:46;4.40;99.90
10390;DHT22;5241;47.830;12.972;2024-03-07T05:37:12;4.40;99.90
10390;DHT22;5241;47.830;12.972;2024-03-07T05:39:38;4.40;99.90
10390;DHT22;5241;47.830;12.972;2024-03-07T05:42:04;4.40;99.90
10390;DHT22;5241;47.830;12.972;2024-03-07T05:44:32;4.40;99.90
10390;DHT22;5241;47.830;12.972;2024-03-07T05:46:57;4.40;99.90
10390;DHT22;5241;47.830;12.972;2024-03-07T05:49:23;4.30;99.90
10390;DHT22;5241;47.830;12.972;2024-03-07T05:51:48;4.30;99.90
10390;DHT22;5241;47.830;12.972;2024-03-07T05:54:14;4.30;99.90
10390;DHT22;5241;47.830;12.972;2024-03-07T05:56:40;4.30;99.90
10390;DHT22;5241;47.830;12.972;2024-03-07T05:59:07;4.30;99.90
10390;DHT22;5241;47.830;12.972;2024-03-07T06:01:35;4.30;99.90
10390;DHT22;5241;47.830;12.972;2024-03-07T06:04:01;4.30;99.90
10390;DHT22;5241;47.830;12.972;2024-03-07T06:06:27;4.40;99.90
10390;DHT22;5241;47.830;12.972;2024-03-07T06:08:54;4.40;99.90
10390;DHT22;5241;47.830;12.972;2024-03-07T06:11:19;4.40;99.90
10390;DHT22;5241;47.830;12.972;2024-03-07T06:13:49;4.40;99.90
10390;DHT22;5241;47.830;12.972;2024-03-07T06:16:15;4.40;99.90
10390;DHT22;5241;47.830;12.972;2024-03-07T06:18:41;4.40;99.90
10390;DHT22;5241;47.830;12.972;2024-03-07T06:21:07;4.40;99.90
10390;DHT22;5241;47.830;12.972;2024-03-07T06:23:33;4.40;99.90
10390;DHT22;5241;47.830;12.972;2024-03-07T06:25:59;4.40;99.90
10390;DHT22;5241;47.830;12.972;2024-03-07T06:28:26;4.40;99.90
10390;DHT22;5241;47.830;12.972;2024-03-07T06:30:54;4.50;99.90
10390;DHT22;5241;47.830;12.972;2024-03-07T06:33:20;4.50;99.90
10390;DHT22;5241;47.830;12.972;2024-03-07T06:35:46;4.50;99.90
10390;DHT22;5241;47.830;12.972;2024-03-07T06:38:12;4.50;99.90
10390;DHT22;5241;47.830;12.972;2024-03-07T06:40:38;4.50;99.90
10390;DHT22;5241;47.830;12.972;2024-03-07T06:43:11;4.50;99.90
10390;DHT22;5241;47.830;12.972;2024-03-07T06:45:37;4.50;99.90
10390;DHT22;5241;47.830;12.972;2024-03-07T06:48:06;4.50;99.90
10390;DHT22;5241;47.830;12.972;2024-03-07T06:50:36;4.50;99.90
10390;DHT22;5241;47.830;12.972;2024-03-07T06:53:05;4.50;99.90
10390;DHT22;5241;47.830;12.972;2024-03-07T06:55:34;4.60;99.90
10390;DHT22;5241;47.830;12.972;2024-03-07T06:58:00;4.60;99.90
10390;DHT22;5241;47.830;12.972;2024-03-07T07:00:25;4.70;99.90
10390;DHT22;5241;47.830;12.972;2024-03-07T07:02:52;4.70;99.90
10390;DHT22;5241;47.830;12.972;2024-03-07T07:05:20;4.90;99.90
10390;DHT22;5241;47.830;12.972;2024-03-07T07:07:45;4.90;99.90
10390;DHT22;5241;47.830;12.972;2024-03-07T07:10:12;4.80;99.90
10390;DHT22;5241;47.830;12.972;2024-03-07T07:12:48;4.80;99.90
10390;DHT22;5241;47.830;12.972;2024-03-07T07:15:16;4.80;99.90
10390;DHT22;5241;47.830;12.972;2024-03-07T07:17:43;4.70;99.90
10390;DHT22;5241;47.830;12.972;2024-03-07T07:20:11;4.80;99.90
10390;DHT22;5241;47.830;12.972;2024-03-07T07:22:39;4.90;99.90
10390;DHT22;5241;47.830;12.972;2024-03-07T07:25:06;4.90;99.90
10390;DHT22;5241;47.830;12.972;2024-03-07T07:30:08;5.00;99.90
10390;DHT22;5241;47.830;12.972;2024-03-07T07:32:35;5.00;99.90
10390;DHT22;5241;47.830;12.972;2024-03-07T07:35:02;5.10;99.90
10390;DHT22;5241;47.830;12.972;2024-03-07T07:37:27;5.20;99.90
10390;DHT22;5241;47.830;12.972;2024-03-07T07:39:53;5.30;99.90
10390;DHT22;5241;47.830;12.972;2024-03-07T07:42:18;5.30;99.90
10390;DHT22;5241;47.830;12.972;2024-03-07T07:44:44;5.60;99.90
10390;DHT22;5241;47.830;12.972;2024-03-07T07:47:10;5.70;99.90
10390;DHT22;5241;47.830;12.972;2024-03-07T07:49:37;5.80;99.90
10390;DHT22;5241;47.830;12.972;2024-03-07T07:52:04;5.80;99.90
10390;DHT22;5241;47.830;12.972;2024-03-07T07:54:30;5.90;99.90
10390;DHT22;5241;47.830;12.972;2024-03-07T07:56:55;6.00;99.90
10390;DHT22;5241;47.830;12.972;2024-03-07T07:59:21;6.00;99.90
10390;DHT22;5241;47.830;12.972;2024-03-07T08:01:47;6.10;99.90
10390;DHT22;5241;47.830;12.972;2024-03-07T08:04:12;6.30;99.90
10390;DHT22;5241;47.830;12.972;2024-03-07T08:06:38;6.40;99.90
10390;DHT22;5241;47.830;12.972;2024-03-07T08:09:03;6.20;99.90
10390;DHT22;5241;47.830;12.972;2024-03-07T08:11:32;6.20;99.90
10390;DHT22;5241;47.830;12.972;2024-03-07T08:13:58;6.20;99.90
10390;DHT22;5241;47.830;12.972;2024-03-07T08:16:23;6.10;99.90
10390;DHT22;5241;47.830;12.972;2024-03-07T08:18:49;6.10;99.90
10390;DHT22;5241;47.830;12.972;2024-03-07T08:21:15;6.10;99.90
10390;DHT22;5241;47.830;12.972;2024-03-07T08:23:40;6.10;99.90
10390;DHT22;5241;47.830;12.972;2024-03-07T08:26:06;6.10;99.90
10390;DHT22;5241;47.830;12.972;2024-03-07T08:28:32;6.10;99.90
10390;DHT22;5241;47.830;12.972;2024-03-07T08:30:57;6.20;99.90
10390;DHT22;5241;47.830;12.972;2024-03-07T08:33:24;6.20;99.90
10390;DHT22;5241;47.830;12.972;2024-03-07T08:35:50;6.20;99.90
10390;DHT22;5241;47.830;12.972;2024-03-07T08:38:18;6.20;99.90
10390;DHT22;5241;47.830;12.972;2024-03-07T08:40:44;6.30;99.90
10390;DHT22;5241;47.830;12.972;2024-03-07T08:43:09;6.50;99.90
10390;DHT22;5241;47.830;12.972;2024-03-07T08:45:35;6.50;99.90
10390;DHT22;5241;47.830;12.972;2024-03-07T08:48:02;6.60;99.90
10390;DHT22;5241;47.830;12.972;2024-03-07T08:50:29;6.70;99.90
10390;DHT22;5241;47.830;12.972;2024-03-07T08:52:55;6.90;99.90
10390;DHT22;5241;47.830;12.972;2024-03-07T08:55:23;7.60;99.90
10390;DHT22;5241;47.830;12.972;2024-03-07T08:57:50;7.80;99.90
10390;DHT22;5241;47.830;12.972;2024-03-07T09:00:17;7.80;99.90
10390;DHT22;5241;47.830;12.972;2024-03-07T09:02:51;8.20;99.90
10390;DHT22;5241;47.830;12.972;2024-03-07T09:05:21;8.50;99.90
10390;DHT22;5241;47.830;12.972;2024-03-07T09:07:48;8.90;99.90
10390;DHT22;5241;47.830;12.972;2024-03-07T09:10:14;8.70;99.90
10390;DHT22;5241;47.830;12.972;2024-03-07T09:12:40;8.60;99.90
10390;DHT22;5241;47.830;12.972;2024-03-07T09:15:06;8.70;99.90
10390;DHT22;5241;47.830;12.972;2024-03-07T09:17:31;8.70;99.90
10390;DHT22;5241;47.830;12.972;2024-03-07T09:19:57;8.20;99.90
10390;DHT22;5241;47.830;12.972;2024-03-07T09:22:23;8.40;99.90
10390;DHT22;5241;47.830;12.972;2024-03-07T09:24:48;8.50;99.90
10390;DHT22;5241;47.830;12.972;2024-03-07T09:27:14;8.50;99.90
10390;DHT22;5241;47.830;12.972;2024-03-07T09:29:45;8.50;99.90
10390;DHT22;5241;47.830;12.972;2024-03-07T09:32:12;8.70;99.90
10390;DHT22;5241;47.830;12.972;2024-03-07T09:34:38;9.20;99.90
10390;DHT22;5241;47.830;12.972;2024-03-07T09:37:03;9.00;99.90
10390;DHT22;5241;47.830;12.972;2024-03-07T09:39:29;9.00;99.90
10390;DHT22;5241;47.830;12.972;2024-03-07T09:42:04;9.20;99.90
10390;DHT22;5241;47.830;12.972;2024-03-07T09:44:33;9.50;99.90
10390;DHT22;5241;47.830;12.972;2024-03-07T09:47:00;9.80;99.90
10390;DHT22;5241;47.830;12.972;2024-03-07T09:49:28;9.90;99.90
10390;DHT22;5241;47.830;12.972;2024-03-07T09:51:55;9.20;99.90
10390;DHT22;5241;47.830;12.972;2024-03-07T09:54:22;8.90;99.90
10390;DHT22;5241;47.830;12.972;2024-03-07T09:56:59;8.70;99.90
10390;DHT22;5241;47.830;12.972;2024-03-07T09:59:28;8.20;99.90
10390;DHT22;5241;47.830;12.972;2024-03-07T10:01:59;7.60;99.90
10390;DHT22;5241;47.830;12.972;2024-03-07T10:04:44;7.70;99.90
10390;DHT22;5241;47.830;12.972;2024-03-07T10:07:16;7.60;99.90
10390;DHT22;5241;47.830;12.972;2024-03-07T10:09:42;7.50;99.90
10390;DHT22;5241;47.830;12.972;2024-03-07T10:12:09;7.40;99.90
10390;DHT22;5241;47.830;12.972;2024-03-07T10:14:56;7.40;99.90
10390;DHT22;5241;47.830;12.972;2024-03-07T10:17:25;7.50;99.90
10390;DHT22;5241;47.830;12.972;2024-03-07T10:19:55;7.90;99.90
10390;DHT22;5241;47.830;12.972;2024-03-07T10:22:21;8.80;99.90
10390;DHT22;5241;47.830;12.972;2024-03-07T10:24:51;9.00;99.90
10390;DHT22;5241;47.830;12.972;2024-03-07T10:27:21;9.60;99.90
10390;DHT22;5241;47.830;12.972;2024-03-07T10:29:47;10.00;99.90
10390;DHT22;5241;47.830;12.972;2024-03-07T10:32:19;10.30;99.90
10390;DHT22;5241;47.830;12.972;2024-03-07T10:34:45;9.90;99.90
10390;DHT22;5241;47.830;12.972;2024-03-07T10:37:14;9.90;99.90
10390;DHT22;5241;47.830;12.972;2024-03-07T10:39:43;9.20;99.90
10390;DHT22;5241;47.830;12.972;2024-03-07T10:42:13;8.70;99.90
10390;DHT22;5241;47.830;12.972;2024-03-07T10:44:46;8.60;99.90
10390;DHT22;5241;47.830;12.972;2024-03-07T10:47:16;8.40;99.90
10390;DHT22;5241;47.830;12.972;2024-03-07T10:50:07;8.10;99.90
10390;DHT22;5241;47.830;12.972;2024-03-07T10:53:05;7.80;99.90
10390;DHT22;5241;47.830;12.972;2024-03-07T10:55:35;7.80;99.90
10390;DHT22;5241;47.830;12.972;2024-03-07T11:01:06;7.90;99.90
10390;DHT22;5241;47.830;12.972;2024-03-07T11:03:36;8.20;99.90
10390;DHT22;5241;47.830;12.972;2024-03-07T11:06:02;7.80;99.90
10390;DHT22;5241;47.830;12.972;2024-03-07T11:08:33;8.00;99.90
10390;DHT22;5241;47.830;12.972;2024-03-07T11:11:00;8.80;99.90
10390;DHT22;5241;47.830;12.972;2024-03-07T11:13:26;8.80;99.90
10390;DHT22;5241;47.830;12.972;2024-03-07T11:15:53;8.90;99.90
10390;DHT22;5241;47.830;12.972;2024-03-07T11:18:23;8.60;99.90
10390;DHT22;5241;47.830;12.972;2024-03-07T11:20:49;8.50;99.90
10390;DHT22;5241;47.830;12.972;2024-03-07T11:23:28;8.30;99.90
10390;DHT22;5241;47.830;12.972;2024-03-07T11:26:10;8.10;99.90
10390;DHT22;5241;47.830;12.972;2024-03-07T11:28:40;8.30;99.90
10390;DHT22;5241;47.830;12.972;2024-03-07T11:31:14;8.50;99.90
10390;DHT22;5241;47.830;12.972;2024-03-07T11:33:41;8.40;99.90
10390;DHT22;5241;47.830;12.972;2024-03-07T11:36:12;8.50;99.90
10390;DHT22;5241;47.830;12.972;2024-03-07T11:38:47;9.00;99.90
10390;DHT22;5241;47.830;12.972;2024-03-07T11:41:14;9.10;99.90
10390;DHT22;5241;47.830;12.972;2024-03-07T11:43:40;9.30;99.90
10390;DHT22;5241;47.830;12.972;2024-03-07T11:46:08;9.20;99.90
10390;DHT22;5241;47.830;12.972;2024-03-07T11:48:40;9.00;99.90
10390;DHT22;5241;47.830;12.972;2024-03-07T11:51:07;8.80;99.90
10390;DHT22;5241;47.830;12.972;2024-03-07T11:53:37;8.40;99.90
10390;DHT22;5241;47.830;12.972;2024-03-07T11:56:04;8.30;99.90
10390;DHT22;5241;47.830;12.972;2024-03-07T11:58:38;8.70;99.90
10390;DHT22;5241;47.830;12.972;2024-03-07T12:01:06;8.50;99.90
10390;DHT22;5241;47.830;12.972;2024-03-07T12:03:36;8.50;99.90
10390;DHT22;5241;47.830;12.972;2024-03-07T12:06:03;9.00;99.90
10390;DHT22;5241;47.830;12.972;2024-03-07T12:08:28;8.90;99.90
10390;DHT22;5241;47.830;12.972;2024-03-07T12:10:55;8.80;99.90
10390;DHT22;5241;47.830;12.972;2024-03-07T12:13:22;9.00;99.90
10390;DHT22;5241;47.830;12.972;2024-03-07T12:15:50;8.90;99.90
10390;DHT22;5241;47.830;12.972;2024-03-07T12:18:21;8.80;99.90
10390;DHT22;5241;47.830;12.972;2024-03-07T12:20:48;8.60;99.90
10390;DHT22;5241;47.830;12.972;2024-03-07T12:23:19;8.50;99.90
10390;DHT22;5241;47.830;12.972;2024-03-07T12:25:45;8.50;99.90
10390;DHT22;5241;47.830;12.972;2024-03-07T12:28:13;8.50;99.90
10390;DHT22;5241;47.830;12.972;2024-03-07T12:30:53;8.50;99.90
10390;DHT22;5241;47.830;12.972;2024-03-07T12:33:20;8.70;99.90
10390;DHT22;5241;47.830;12.972;2024-03-07T12:35:47;8.60;99.90
10390;DHT22;5241;47.830;12.972;2024-03-07T12:38:15;8.80;99.90
10390;DHT22;5241;47.830;12.972;2024-03-07T12:40:45;8.60;99.90
10390;DHT22;5241;47.830;12.972;2024-03-07T12:43:19;8.60;99.90
10390;DHT22;5241;47.830;12.972;2024-03-07T12:45:52;8.90;99.90
10390;DHT22;5241;47.830;12.972;2024-03-07T12:48:18;9.00;99.90
10390;DHT22;5241;47.830;12.972;2024-03-07T12:50:45;9.30;99.90
10390;DHT22;5241;47.830;12.972;2024-03-07T12:53:12;9.70;99.90
10390;DHT22;5241;47.830;12.972;2024-03-07T12:55:41;9.70;99.90
10390;DHT22;5241;47.830;12.972;2024-03-07T12:58:08;9.70;99.90
10390;DHT22;5241;47.830;12.972;2024-03-07T13:00:35;9.50;99.90
10390;DHT22;5241;47.830;12.972;2024-03-07T13:03:01;9.30;99.90
10390;DHT22;5241;47.830;12.972;2024-03-07T13:05:26;8.90;99.90
10390;DHT22;5241;47.830;12.972;2024-03-07T13:07:52;8.70;99.90
10390;DHT22;5241;47.830;12.972;2024-03-07T13:10:18;8.50;99.90
10390;DHT22;5241;47.830;12.972;2024-03-07T13:12:48;8.50;99.90
10390;DHT22;5241;47.830;12.972;2024-03-07T13:15:18;8.10;99.90
10390;DHT22;5241;47.830;12.972;2024-03-07T13:17:43;8.10;99.90
10390;DHT22;5241;47.830;12.972;2024-03-07T13:20:10;8.30;99.90
10390;DHT22;5241;47.830;12.972;2024-03-07T13:22:43;8.40;99.90
10390;DHT22;5241;47.830;12.972;2024-03-07T13:25:22;8.90;99.90
10390;DHT22;5241;47.830;12.972;2024-03-07T13:28:04;9.10;99.90
10390;DHT22;5241;47.830;12.972;2024-03-07T13:30:33;9.40;99.90
10390;DHT22;5241;47.830;12.972;2024-03-07T13:33:02;9.70;99.90
10390;DHT22;5241;47.830;12.972;2024-03-07T13:35:29;10.80;99.90
10390;DHT22;5241;47.830;12.972;2024-03-07T13:37:55;11.00;99.50
10390;DHT22;5241;47.830;12.972;2024-03-07T13:40:25;11.40;98.70
10390;DHT22;5241;47.830;12.972;2024-03-07T13:43:01;10.30;99.90
10390;DHT22;5241;47.830;12.972;2024-03-07T13:45:29;9.90;99.90
10390;DHT22;5241;47.830;12.972;2024-03-07T13:47:57;9.70;99.90
10390;DHT22;5241;47.830;12.972;2024-03-07T13:50:26;9.30;99.90
10390;DHT22;5241;47.830;12.972;2024-03-07T13:52:54;9.70;99.90
10390;DHT22;5241;47.830;12.972;2024-03-07T14:03:59;8.90;99.90
10390;DHT22;5241;47.830;12.972;2024-03-07T14:12:17;8.80;99.90
10390;DHT22;5241;47.830;12.972;2024-03-07T14:32:24;8.10;99.90
10390;DHT22;5241;47.830;12.972;2024-03-07T14:35:00;7.80;99.90
10390;DHT22;5241;47.830;12.972;2024-03-07T14:37:37;8.10;99.90
10390;DHT22;5241;47.830;12.972;2024-03-07T14:40:10;8.00;99.90
10390;DHT22;5241;47.830;12.972;2024-03-07T14:42:48;8.10;99.90
10390;DHT22;5241;47.830;12.972;2024-03-07T14:45:24;8.00;99.90
10390;DHT22;5241;47.830;12.972;2024-03-07T14:47:51;8.10;99.90
10390;DHT22;5241;47.830;12.972;2024-03-07T14:50:21;7.80;99.90
10390;DHT22;5241;47.830;12.972;2024-03-07T14:52:48;7.90;99.90
10390;DHT22;5241;47.830;12.972;2024-03-07T14:55:14;7.90;99.90
10390;DHT22;5241;47.830;12.972;2024-03-07T14:57:40;8.10;99.90
10390;DHT22;5241;47.830;12.972;2024-03-07T15:00:09;7.90;99.90
10390;DHT22;5241;47.830;12.972;2024-03-07T15:02:48;7.70;99.90
10390;DHT22;5241;47.830;12.972;2024-03-07T15:05:17;7.80;99.90
10390;DHT22;5241;47.830;12.972;2024-03-07T15:07:47;7.80;99.90
10390;DHT22;5241;47.830;12.972;2024-03-07T15:10:18;7.90;99.90
10390;DHT22;5241;47.830;12.972;2024-03-07T15:12:46;7.80;99.90
10390;DHT22;5241;47.830;12.972;2024-03-07T15:15:14;7.60;99.90
10390;DHT22;5241;47.830;12.972;2024-03-07T15:17:43;7.70;99.90
10390;DHT22;5241;47.830;12.972;2024-03-07T15:20:11;7.80;99.90
10390;DHT22;5241;47.830;12.972;2024-03-07T15:22:54;7.80;99.90
10390;DHT22;5241;47.830;12.972;2024-03-07T15:25:23;7.60;99.90
10390;DHT22;5241;47.830;12.972;2024-03-07T15:27:50;7.50;99.90
10390;DHT22;5241;47.830;12.972;2024-03-07T15:30:16;7.60;99.90
10390;DHT22;5241;47.830;12.972;2024-03-07T15:32:43;7.50;99.90
10390;DHT22;5241;47.830;12.972;2024-03-07T15:35:10;7.50;99.90
10390;DHT22;5241;47.830;12.972;2024-03-07T15:37:46;7.60;99.90
10390;DHT22;5241;47.830;12.972;2024-03-07T15:40:14;7.30;99.90
10390;DHT22;5241;47.830;12.972;2024-03-07T15:42:42;7.20;99.90
10390;DHT22;5241;47.830;12.972;2024-03-07T15:45:09;7.10;99.90
10390;DHT22;5241;47.830;12.972;2024-03-07T15:47:49;7.10;99.90
10390;DHT22;5241;47.830;12.972;2024-03-07T15:50:15;7.10;99.90
10390;DHT22;5241;47.830;12.972;2024-03-07T15:52:44;7.00;99.90
10390;DHT22;5241;47.830;12.972;2024-03-07T15:55:11;6.90;99.90
10390;DHT22;5241;47.830;12.972;2024-03-07T15:57:50;6.80;99.90
10390;DHT22;5241;47.830;12.972;2024-03-07T16:00:23;6.70;99.90
10390;DHT22;5241;47.830;12.972;2024-03-07T16:05:31;6.70;99.90
10390;DHT22;5241;47.830;12.972;2024-03-07T16:08:00;6.70;99.90
10390;DHT22;5241;47.830;12.972;2024-03-07T16:10:27;6.60;99.90
10390;DHT22;5241;47.830;12.972;2024-03-07T16:12:54;6.50;99.90
10390;DHT22;5241;47.830;12.972;2024-03-07T16:15:20;6.40;99.90
10390;DHT22;5241;47.830;12.972;2024-03-07T16:17:50;6.30;99.90
10390;DHT22;5241;47.830;12.972;2024-03-07T16:20:18;6.40;99.90
10390;DHT22;5241;47.830;12.972;2024-03-07T16:22:47;6.50;99.90
10390;DHT22;5241;47.830;12.972;2024-03-07T16:25:17;6.30;99.90
10390;DHT22;5241;47.830;12.972;2024-03-07T16:27:43;6.20;99.90
10390;DHT22;5241;47.830;12.972;2024-03-07T16:30:15;6.10;99.90